createdAt,value
2023-05-15T00:00:20.912Z,0.0000
2023-05-15T00:01:27.901Z,0.0000
2023-05-15T00:06:05.340Z,0.0000
2023-05-15T00:08:07.159Z,0.0000
2023-05-15T00:09:08.601Z,0.0000
2023-05-15T00:10:09.519Z,0.0000
2023-05-15T00:11:11.585Z,0.0000
2023-05-15T00:12:13.503Z,0.0000
2023-05-15T00:13:15.012Z,0.0000
2023-05-15T00:14:15.685Z,0.0000
2023-05-15T00:15:16.929Z,0.0000
2023-05-15T00:16:19.457Z,0.0000
2023-05-15T00:17:20.140Z,0.0000
2023-05-15T00:18:20.241Z,0.0000
2023-05-15T00:19:22.469Z,0.0000
2023-05-15T00:24:29.236Z,0.0000
2023-05-15T00:25:29.838Z,0.0000
2023-05-15T00:30:07.966Z,0.0000
2023-05-15T00:31:10.223Z,0.0000
2023-05-15T00:32:10.370Z,0.0000
2023-05-15T00:33:11.148Z,0.0000
2023-05-15T00:34:12.462Z,0.0000
2023-05-15T00:35:13.241Z,0.0000
2023-05-15T00:36:14.234Z,0.0000
2023-05-15T00:37:15.863Z,0.0000
2023-05-15T00:38:17.942Z,0.0000
2023-05-15T00:39:18.053Z,0.0000
2023-05-15T00:40:20.217Z,0.0000
2023-05-15T00:41:22.393Z,0.0000
2023-05-15T00:42:24.571Z,0.0000
2023-05-15T00:44:26.462Z,0.0000
2023-05-15T00:45:28.615Z,0.0000
2023-05-15T01:00:48.260Z,0.0000
2023-05-15T01:01:49.176Z,0.0000
2023-05-15T01:02:51.216Z,0.0000
2023-05-15T01:03:52.520Z,0.0000
2023-05-15T01:04:53.788Z,0.0000
2023-05-15T01:05:54.978Z,0.0000
2023-05-15T01:06:55.569Z,0.0000
2023-05-15T01:07:56.727Z,0.0000
2023-05-15T01:08:57.829Z,0.0000
2023-05-15T01:09:59.458Z,0.0000
2023-05-15T01:11:02.049Z,0.0000
2023-05-15T01:12:02.860Z,0.0000
2023-05-15T01:13:04.235Z,0.0000
2023-05-15T01:14:06.439Z,0.0000
2023-05-15T01:15:08.633Z,0.0000
2023-05-15T01:16:10.029Z,0.0000
2023-05-15T01:20:16.145Z,0.0000
2023-05-15T01:21:17.743Z,0.0000
2023-05-15T01:22:18.241Z,0.0000
2023-05-15T01:23:19.742Z,0.0000
2023-05-15T01:24:21.343Z,0.0000
2023-05-15T01:25:21.361Z,0.0000
2023-05-15T01:26:22.124Z,0.0000
2023-05-15T01:27:22.773Z,0.0000
2023-05-15T01:28:24.663Z,0.0000
2023-05-15T01:29:24.722Z,0.0000
2023-05-15T01:30:25.340Z,0.0000
2023-05-15T01:31:25.921Z,0.0000
2023-05-15T01:32:26.371Z,0.0000
2023-05-15T01:33:27.429Z,0.0000
2023-05-15T01:34:29.234Z,0.0000
2023-05-15T01:35:31.139Z,0.0000
2023-05-15T01:36:31.442Z,0.0000
2023-05-15T01:37:33.133Z,0.0000
2023-05-15T01:38:35.193Z,0.0000
2023-05-15T01:39:37.096Z,0.0000
2023-05-15T01:40:37.821Z,0.0000
2023-05-15T01:41:38.862Z,0.0000
2023-05-15T01:42:39.167Z,0.0000
2023-05-15T01:43:39.349Z,0.0000
2023-05-15T01:44:41.754Z,0.0000
2023-05-15T01:45:41.889Z,0.0000
2023-05-15T01:46:43.774Z,0.0000
2023-05-15T01:47:44.447Z,0.0000
2023-05-15T01:48:45.702Z,0.0000
2023-05-15T01:49:46.750Z,0.0000
2023-05-15T01:50:49.609Z,0.0000
2023-05-15T01:51:50.484Z,0.0000
2023-05-15T01:52:51.469Z,0.0000
2023-05-15T01:53:54.046Z,0.0000
2023-05-15T01:55:55.974Z,0.0000
2023-05-15T01:56:58.617Z,0.0000
2023-05-15T01:58:01.022Z,0.0000
2023-05-15T01:59:01.197Z,0.0000
2023-05-15T02:00:02.872Z,0.0000
2023-05-15T02:01:05.202Z,0.0000
2023-05-15T02:02:06.590Z,0.0000
2023-05-15T02:03:07.867Z,0.0000
2023-05-15T02:05:09.110Z,0.0000
2023-05-15T02:06:09.900Z,0.0000
2023-05-15T02:07:11.870Z,0.0000
2023-05-15T02:08:14.580Z,0.0000
2023-05-15T02:09:16.275Z,0.0000
2023-05-15T02:10:17.464Z,0.0000
2023-05-15T02:11:18.626Z,0.0000
2023-05-15T02:18:25.664Z,0.0000
2023-05-15T02:19:26.617Z,0.0000
2023-05-15T02:20:28.226Z,0.0000
2023-05-15T02:21:28.531Z,0.0000
2023-05-15T02:22:29.195Z,0.0000
2023-05-15T02:23:29.373Z,0.0000
2023-05-15T02:24:30.560Z,0.0000
2023-05-15T02:25:32.740Z,0.0000
2023-05-15T02:26:32.941Z,0.0000
2023-05-15T02:27:35.048Z,0.0000
2023-05-15T02:28:35.685Z,0.0000
2023-05-15T02:29:37.075Z,0.0000
2023-05-15T02:31:38.787Z,0.0000
2023-05-15T02:32:39.924Z,0.0000
2023-05-15T02:33:41.686Z,0.0000
2023-05-15T02:34:43.603Z,0.0000
2023-05-15T02:35:44.288Z,0.0000
2023-05-15T02:36:45.952Z,0.0000
2023-05-15T02:37:46.455Z,0.0000
2023-05-15T02:39:46.806Z,0.0000
2023-05-15T02:40:48.041Z,0.0000
2023-05-15T02:41:49.857Z,0.0000
2023-05-15T02:42:50.236Z,0.0000
2023-05-15T02:43:51.353Z,0.0000
2023-05-15T02:44:53.845Z,0.0000
2023-05-15T02:46:56.378Z,0.0000
2023-05-15T02:47:57.372Z,0.0000
2023-05-15T02:48:59.240Z,0.0000
2023-05-15T02:50:01.582Z,0.0000
2023-05-15T02:53:04.780Z,0.0000
2023-05-15T02:54:05.174Z,0.0000
2023-05-15T02:55:05.860Z,0.0000
2023-05-15T02:56:07.619Z,0.0000
2023-05-15T02:57:09.485Z,0.0000
2023-05-15T02:58:10.300Z,0.0000
2023-05-15T02:59:10.907Z,0.0000
2023-05-15T03:00:11.493Z,0.0000
2023-05-15T03:01:12.245Z,0.0000
2023-05-15T03:02:14.068Z,0.0000
2023-05-15T03:03:15.948Z,0.0000
2023-05-15T03:04:17.079Z,0.0000
2023-05-15T03:05:18.402Z,0.0000
2023-05-15T03:06:20.473Z,0.0000
2023-05-15T03:07:22.447Z,0.0000
2023-05-15T03:08:25.238Z,0.0000
2023-05-15T03:13:27.808Z,0.0000
2023-05-15T03:14:28.362Z,0.0000
2023-05-15T03:15:29.949Z,0.0000
2023-05-15T03:16:30.826Z,0.0000
2023-05-15T03:17:31.934Z,0.0000
2023-05-15T03:18:32.375Z,0.0000
2023-05-15T03:19:34.444Z,0.0000
2023-05-15T03:20:35.566Z,0.0000
2023-05-15T03:21:36.481Z,0.0000
2023-05-15T03:22:38.090Z,0.0000
2023-05-15T03:23:47.035Z,0.0000
2023-05-15T03:33:26.674Z,0.0000
2023-05-15T03:34:28.405Z,0.0000
2023-05-15T03:35:28.473Z,0.0000
2023-05-15T03:36:29.926Z,0.0000
2023-05-15T03:37:30.997Z,0.0000
2023-05-15T03:38:32.471Z,0.0000
2023-05-15T03:39:32.626Z,0.0000
2023-05-15T03:40:35.218Z,0.0000
2023-05-15T03:41:36.357Z,0.0000
2023-05-15T03:42:38.370Z,0.0000
2023-05-15T03:44:38.540Z,0.0000
2023-05-15T03:46:40.757Z,0.0000
2023-05-15T03:47:43.617Z,0.0000
2023-05-15T03:48:43.621Z,0.0000
2023-05-15T03:49:45.514Z,0.0000
2023-05-15T03:50:46.635Z,0.0000
2023-05-15T03:51:48.177Z,0.0000
2023-05-15T03:52:49.319Z,0.0000
2023-05-15T03:53:50.877Z,0.0000
2023-05-15T03:54:52.305Z,0.0000
2023-05-15T03:55:52.701Z,0.0000
2023-05-15T03:56:54.055Z,0.0000
2023-05-15T03:57:55.812Z,0.0000
2023-05-15T03:58:56.678Z,0.0000
2023-05-15T03:59:58.619Z,0.0000
2023-05-15T04:00:59.628Z,0.0000
2023-05-15T04:02:04.167Z,0.0000
2023-05-15T04:03:03.206Z,0.0000
2023-05-15T04:06:07.414Z,0.0000
2023-05-15T04:07:08.033Z,0.0000
2023-05-15T04:09:09.104Z,0.0000
2023-05-15T04:10:10.903Z,0.0000
2023-05-15T04:11:11.585Z,0.0000
2023-05-15T04:12:12.323Z,0.0000
2023-05-15T04:13:12.752Z,0.0000
2023-05-15T04:14:13.612Z,0.0000
2023-05-15T04:15:13.882Z,0.0000
2023-05-15T04:16:15.165Z,0.0000
2023-05-15T04:17:16.185Z,0.0000
2023-05-15T04:18:17.637Z,0.0000
2023-05-15T04:19:17.717Z,0.0000
2023-05-15T04:20:18.579Z,0.0000
2023-05-15T04:21:19.204Z,0.0000
2023-05-15T04:33:32.481Z,0.0000
2023-05-15T04:36:34.903Z,0.0000
2023-05-15T04:37:36.891Z,0.0000
2023-05-15T04:38:38.391Z,0.0000
2023-05-15T04:39:38.624Z,0.0000
2023-05-15T04:40:40.708Z,0.0000
2023-05-15T04:41:41.321Z,0.0000
2023-05-15T04:42:43.447Z,0.0000
2023-05-15T04:43:46.256Z,0.0000
2023-05-15T04:48:49.236Z,0.0000
2023-05-15T04:49:51.557Z,0.0000
2023-05-15T04:50:52.705Z,0.0000
2023-05-15T04:53:57.464Z,0.0000
2023-05-15T04:59:00.313Z,0.0000
2023-05-15T05:00:00.763Z,0.0000
2023-05-15T05:01:03.937Z,0.0000
2023-05-15T05:02:02.860Z,0.0000
2023-05-15T05:03:03.272Z,0.0000
2023-05-15T05:04:05.453Z,0.0000
2023-05-15T05:05:07.531Z,0.0000
2023-05-15T05:06:07.667Z,0.0000
2023-05-15T05:07:09.249Z,0.0000
2023-05-15T05:08:11.501Z,0.0000
2023-05-15T05:15:17.323Z,0.0000
2023-05-15T05:16:18.022Z,0.0000
2023-05-15T05:17:19.589Z,0.0000
2023-05-15T05:18:21.827Z,0.0000
2023-05-15T05:19:22.042Z,0.0000
2023-05-15T05:20:24.296Z,0.0000
2023-05-15T05:21:24.680Z,0.0000
2023-05-15T05:30:36.178Z,0.0000
2023-05-15T05:31:36.308Z,0.0000
2023-05-15T05:32:38.636Z,0.0000
2023-05-15T05:33:39.436Z,0.0000
2023-05-15T05:34:39.495Z,0.0000
2023-05-15T05:35:40.620Z,0.0000
2023-05-15T05:36:42.472Z,0.0000
2023-05-15T05:37:43.290Z,0.0000
2023-05-15T05:38:45.243Z,0.0000
2023-05-15T05:39:46.013Z,0.0000
2023-05-15T05:40:48.071Z,0.0000
2023-05-15T05:41:50.300Z,0.0000
2023-05-15T05:42:51.491Z,0.0000
2023-05-15T05:43:54.307Z,0.0000
2023-05-15T05:44:54.271Z,0.0000
2023-05-15T05:45:55.772Z,0.0000
2023-05-15T05:46:57.609Z,0.0000
2023-05-15T05:48:00.224Z,0.0000
2023-05-15T05:49:02.588Z,0.0000
2023-05-15T05:50:03.763Z,0.0000
2023-05-15T05:51:03.766Z,0.0000
2023-05-15T05:52:06.470Z,0.0000
2023-05-15T05:55:07.078Z,0.0000
2023-05-15T05:56:07.162Z,0.0000
2023-05-15T05:57:10.041Z,0.0000
2023-05-15T06:03:14.676Z,0.0000
2023-05-15T06:07:17.633Z,0.0000
2023-05-15T06:08:19.763Z,0.0000
2023-05-15T06:09:19.996Z,0.0000
2023-05-15T06:10:22.146Z,0.0000
2023-05-15T06:11:25.384Z,0.0000
2023-05-15T06:12:25.079Z,0.0000
2023-05-15T06:13:26.680Z,0.0000
2023-05-15T06:14:28.008Z,0.0000
2023-05-15T06:15:28.635Z,0.0000
2023-05-15T06:16:29.088Z,0.0000
2023-05-15T06:17:31.175Z,0.0000
2023-05-15T06:18:31.604Z,0.0000
2023-05-15T06:19:33.832Z,0.0000
2023-05-15T06:20:35.578Z,0.0000
2023-05-15T06:21:38.172Z,0.0000
2023-05-15T06:26:43.487Z,285.9750
2023-05-15T06:27:43.628Z,323.8702
2023-05-15T06:28:43.831Z,333.6058
2023-05-15T06:29:45.382Z,336.4183
2023-05-15T06:30:46.148Z,342.4500
2023-05-15T06:31:48.477Z,355.8424
2023-05-15T06:32:51.124Z,355.0240
2023-05-15T06:34:52.616Z,350.8333
2023-05-15T06:37:56.474Z,325.0272
2023-05-15T06:38:55.562Z,369.3750
2023-05-15T06:39:57.369Z,357.7083
2023-05-15T06:40:58.588Z,312.6202
2023-05-15T06:42:59.267Z,225.4327
2023-05-15T06:48:32.738Z,0.0000
2023-05-15T06:49:33.136Z,0.0000
2023-05-15T06:50:33.511Z,0.0000
2023-05-15T06:51:34.406Z,0.0000
2023-05-15T06:52:34.443Z,0.0000
2023-05-15T06:53:35.002Z,0.0000
2023-05-15T06:54:35.330Z,0.0000
2023-05-15T06:59:38.086Z,0.0000
2023-05-15T07:03:39.961Z,0.0000
2023-05-15T07:04:57.802Z,0.0000
2023-05-15T07:07:15.837Z,581.8750
2023-05-15T07:08:15.853Z,643.9500
2023-05-15T07:09:16.046Z,662.8500
2023-05-15T07:10:17.202Z,655.4250
2023-05-15T07:11:19.143Z,618.5156
2023-05-15T07:12:19.958Z,609.5250
2023-05-15T07:14:21.322Z,674.5673
2023-05-15T07:17:24.597Z,827.2917
2023-05-15T07:18:24.718Z,839.4231
2023-05-15T07:19:25.762Z,889.2000
2023-05-15T07:20:30.307Z,985.0240
2023-05-15T07:21:28.017Z,1053.9204
2023-05-15T07:22:28.096Z,1105.7452
2023-05-15T07:23:28.436Z,1112.2356
2023-05-15T07:24:28.438Z,1089.0000
2023-05-15T07:25:30.414Z,1043.4375
2023-05-15T07:26:38.441Z,987.4039
2023-05-15T07:27:31.977Z,931.3393
2023-05-15T07:28:32.137Z,880.9615
2023-05-15T07:29:34.021Z,802.9167
2023-05-15T07:30:35.822Z,723.7500
2023-05-15T07:31:37.002Z,628.0529
2023-05-15T07:32:38.442Z,514.2548
2023-05-15T07:33:40.084Z,435.0721
2023-05-15T07:34:40.882Z,394.2000
2023-05-15T07:35:41.057Z,379.9038
2023-05-15T07:36:41.666Z,380.1562
2023-05-15T07:42:47.523Z,235.4167
2023-05-15T07:43:47.723Z,202.0673
2023-05-15T07:44:49.977Z,173.9423
2023-05-15T07:45:50.642Z,156.6000
2023-05-15T07:46:51.937Z,143.0048
2023-05-15T07:47:53.709Z,140.6250
2023-05-15T07:48:52.966Z,149.6250
2023-05-15T07:49:54.133Z,161.1000
2023-05-15T07:50:56.521Z,165.4688
2023-05-15T07:51:57.954Z,166.5865
2023-05-15T07:54:00.114Z,157.7163
2023-05-15T07:56:02.634Z,163.1250
2023-05-15T07:57:02.934Z,166.3702
2023-05-15T07:58:02.813Z,165.1500
2023-05-15T07:59:03.947Z,168.7500
2023-05-15T08:02:07.524Z,194.7115
2023-05-15T08:03:09.197Z,215.0481
2023-05-15T08:11:16.924Z,559.9219
2023-05-15T08:12:18.647Z,579.1500
2023-05-15T08:13:19.392Z,594.0489
2023-05-15T08:14:22.408Z,600.0000
2023-05-15T08:15:23.604Z,622.4185
2023-05-15T08:16:23.669Z,668.8859
2023-05-15T08:17:25.515Z,724.2750
2023-05-15T08:18:27.176Z,805.2083
2023-05-15T08:19:28.074Z,906.9231
2023-05-15T08:20:28.662Z,974.2067
2023-05-15T08:21:29.461Z,990.6490
2023-05-15T08:22:29.708Z,972.6923
2023-05-15T08:23:31.028Z,954.6750
2023-05-15T08:27:35.766Z,1014.1406
2023-05-15T08:30:40.258Z,1128.6779
2023-05-15T08:31:40.537Z,1170.8654
2023-05-15T08:32:41.875Z,1231.6500
2023-05-15T08:33:42.318Z,1287.4219
2023-05-15T08:34:42.884Z,1256.3315
2023-05-15T08:35:43.708Z,1271.7391
2023-05-15T08:36:45.221Z,1259.0217
2023-05-15T08:37:44.758Z,1289.1477
2023-05-15T08:38:46.697Z,1360.1682
2023-05-15T08:40:47.150Z,1431.6848
2023-05-15T08:41:47.642Z,1423.5938
2023-05-15T08:43:49.298Z,1446.3000
2023-05-15T08:44:49.813Z,1583.9062
2023-05-15T08:45:50.765Z,1519.4531
2023-05-15T08:49:52.984Z,1185.6522
2023-05-15T08:50:53.871Z,1250.7065
2023-05-15T08:51:54.721Z,1384.6154
2023-05-15T08:52:56.695Z,1518.9750
2023-05-15T08:53:57.248Z,1594.0760
2023-05-15T08:54:58.941Z,1526.3315
2023-05-15T08:55:59.480Z,1430.9135
2023-05-15T08:57:00.898Z,1450.3846
2023-05-15T08:58:00.865Z,1441.0227
2023-05-15T08:59:03.057Z,1490.8334
2023-05-15T09:00:04.277Z,1551.2019
2023-05-15T09:02:06.894Z,1743.3750
2023-05-15T09:03:07.200Z,1814.9279
2023-05-15T09:04:07.367Z,1804.4022
2023-05-15T09:05:08.999Z,1809.9265
2023-05-15T09:06:10.702Z,1983.4615
2023-05-15T09:07:12.561Z,1718.7500
2023-05-15T09:08:14.182Z,1707.4038
2023-05-15T09:09:15.917Z,1672.5000
2023-05-15T09:10:17.205Z,1697.6250
2023-05-15T09:11:18.536Z,1656.2250
2023-05-15T09:12:51.373Z,1495.5469
2023-05-15T09:13:51.530Z,1398.8943
2023-05-15T09:15:23.803Z,1035.9375
2023-05-15T09:16:25.691Z,834.2578
2023-05-15T09:23:05.516Z,655.8088
2023-05-15T09:24:06.865Z,558.8221
2023-05-15T09:25:08.879Z,404.0625
2023-05-15T09:26:09.968Z,329.0625
2023-05-15T09:27:11.394Z,281.4663
2023-05-15T09:28:12.297Z,256.0714
2023-05-15T09:29:13.555Z,247.9500
2023-05-15T09:30:14.577Z,247.5000
2023-05-15T09:31:14.934Z,250.9615
2023-05-15T09:32:16.871Z,268.0435
2023-05-15T09:33:18.202Z,293.3654
2023-05-15T09:34:18.853Z,332.5781
2023-05-15T09:35:22.898Z,367.9261
2023-05-15T09:36:22.254Z,382.5000
2023-05-15T09:37:23.405Z,378.6648
2023-05-15T09:38:24.807Z,344.1477
2023-05-15T09:39:25.228Z,310.1421
2023-05-15T09:40:26.607Z,287.3864
2023-05-15T09:43:30.408Z,288.8315
2023-05-15T09:44:31.705Z,295.4250
2023-05-15T09:46:32.635Z,297.2596
2023-05-15T09:47:33.069Z,292.5000
2023-05-15T09:48:33.843Z,300.1500
2023-05-15T09:49:34.473Z,315.4891
2023-05-15T09:52:34.819Z,382.9500
2023-05-15T09:55:36.807Z,548.6539
2023-05-15T09:56:37.281Z,686.0156
2023-05-15T09:57:39.574Z,868.1250
2023-05-15T09:58:40.747Z,1121.2500
2023-05-15T10:08:49.737Z,2102.0193
2023-05-15T10:09:51.461Z,2039.2788
2023-05-15T10:11:30.282Z,2121.5625
2023-05-15T10:12:31.309Z,2080.3125
2023-05-15T10:17:05.161Z,2013.4822
2023-05-15T10:18:06.470Z,2108.4751
2023-05-15T10:19:07.876Z,2217.3318
2023-05-15T10:27:15.211Z,2370.9375
2023-05-15T10:31:22.404Z,1918.9904
2023-05-15T10:44:36.733Z,943.0529
2023-05-15T10:45:37.927Z,911.6827
2023-05-15T10:46:38.891Z,888.7500
2023-05-15T10:47:39.245Z,872.7404
2023-05-15T10:48:40.954Z,841.1539
2023-05-15T10:52:44.657Z,666.0938
2023-05-15T11:02:21.765Z,452.8125
2023-05-15T11:03:24.119Z,482.2356
2023-05-15T11:05:25.885Z,583.5326
2023-05-15T11:07:26.753Z,676.5750
2023-05-15T11:08:27.075Z,706.0500
2023-05-15T11:13:31.015Z,934.8317
2023-05-15T11:14:32.696Z,1154.5312
2023-05-15T11:17:35.056Z,2803.5938
2023-05-15T11:24:16.890Z,3972.4219
2023-05-15T11:25:20.294Z,3797.0913
2023-05-15T11:26:20.666Z,3290.1750
2023-05-15T11:27:20.749Z,3007.5000
2023-05-15T11:28:23.377Z,3788.9583
2023-05-15T11:29:24.351Z,4423.6299
2023-05-15T11:30:27.170Z,4217.2158
2023-05-15T11:31:28.203Z,4402.6440
2023-05-15T11:32:29.515Z,4177.2114
2023-05-15T11:33:30.555Z,4215.7212
2023-05-15T11:34:30.614Z,4383.0977
2023-05-15T11:35:33.763Z,4378.1250
2023-05-15T11:41:01.634Z,4281.0938
2023-05-15T11:42:01.753Z,4151.4751
2023-05-15T11:43:02.533Z,1805.9210
2023-05-15T11:44:33.851Z,4443.0469
2023-05-15T11:46:36.434Z,4273.9185
2023-05-15T11:50:44.235Z,4249.9434
2023-05-15T11:52:07.367Z,4270.3125
2023-05-15T13:12:24.598Z,1487.3438
2023-05-15T13:22:43.622Z,1446.3281
2023-05-15T13:23:44.699Z,1485.0000
2023-05-15T13:24:45.714Z,1529.3510
2023-05-15T13:25:46.878Z,1532.3798
2023-05-15T13:27:47.572Z,1554.6635
2023-05-15T13:28:48.387Z,1578.6000
2023-05-15T13:29:49.564Z,1963.1250
2023-05-15T13:30:50.205Z,1678.8462
2023-05-15T13:41:46.209Z,1496.9836
2023-05-15T13:42:46.821Z,1508.8500
2023-05-15T13:43:46.823Z,1517.5272
2023-05-15T13:44:47.556Z,1551.5625
2023-05-15T13:45:47.937Z,1666.0818
2023-05-15T13:46:48.924Z,1792.0739
2023-05-15T13:47:49.893Z,1737.4760
2023-05-15T13:48:51.026Z,1710.0000
2023-05-15T13:49:53.200Z,1781.0796
2023-05-15T13:50:53.883Z,1897.7344
2023-05-15T13:51:54.239Z,2927.8125
2023-05-15T13:52:56.259Z,3856.9602
2023-05-15T13:53:59.836Z,2484.5193
2023-05-15T14:01:35.637Z,1653.0469
2023-05-15T14:02:36.821Z,1266.0577
2023-05-15T14:04:07.704Z,1021.4062
2023-05-15T14:13:56.899Z,542.4107
2023-05-15T14:14:57.534Z,563.7981
2023-05-15T14:15:58.267Z,583.4659
2023-05-15T14:16:59.155Z,600.9750
2023-05-15T14:18:01.795Z,609.0750
2023-05-15T14:29:01.028Z,453.8942
2023-05-15T14:30:02.417Z,417.3750
2023-05-15T14:33:06.290Z,305.6971
2023-05-15T14:34:06.407Z,275.1923
2023-05-15T14:35:07.096Z,253.3500
2023-05-15T14:36:08.081Z,236.6827
2023-05-15T14:38:09.721Z,209.7917
2023-05-15T14:39:11.598Z,198.7500
2023-05-15T14:40:13.653Z,190.0272
2023-05-15T14:41:13.862Z,183.0288
2023-05-15T14:42:15.871Z,174.5913
2023-05-15T14:43:17.291Z,166.0598
2023-05-15T14:44:19.497Z,163.1250
2023-05-15T14:48:22.238Z,163.1250
2023-05-15T14:49:22.376Z,167.4716
2023-05-15T14:50:24.060Z,173.9062
2023-05-15T14:51:26.388Z,179.2663
2023-05-15T14:52:26.763Z,180.2163
2023-05-15T14:53:28.204Z,187.5721
2023-05-15T14:54:29.439Z,199.0761
2023-05-15T14:55:32.116Z,203.9062
2023-05-15T14:56:32.429Z,211.7250
2023-05-15T14:57:34.427Z,219.5913
2023-05-15T14:58:35.182Z,225.4327
2023-05-15T14:59:35.615Z,230.6250
2023-05-15T15:00:37.728Z,233.7750
2023-05-15T15:01:38.153Z,238.8281
2023-05-15T15:02:39.163Z,247.7446
2023-05-15T15:03:40.522Z,255.0721
2023-05-15T15:04:41.047Z,262.4279
2023-05-15T15:05:41.974Z,268.8750
2023-05-15T15:15:53.466Z,462.4219
2023-05-15T15:16:55.287Z,495.4327
2023-05-15T15:17:57.592Z,523.3594
2023-05-15T15:19:59.090Z,543.4615
2023-05-15T15:21:00.681Z,550.7609
2023-05-15T15:23:02.968Z,548.2211
2023-05-15T15:24:04.701Z,558.8315
2023-05-15T15:25:05.748Z,576.6848
2023-05-15T15:26:06.374Z,600.4076
2023-05-15T15:27:06.685Z,617.1094
2023-05-15T15:32:50.031Z,570.0815
2023-05-15T15:33:51.778Z,568.1250
2023-05-15T15:34:52.158Z,567.6923
2023-05-15T15:35:52.251Z,562.9688
2023-05-15T15:36:53.204Z,562.7446
2023-05-15T15:37:53.401Z,566.8269
2023-05-15T15:41:56.620Z,663.1010
2023-05-15T15:42:57.355Z,693.7500
2023-05-15T15:43:58.016Z,713.2933
2023-05-15T15:44:59.119Z,733.0500
2023-05-15T15:45:59.499Z,750.7211
2023-05-15T15:47:01.579Z,765.4167
2023-05-15T15:48:02.106Z,775.5750
2023-05-15T15:56:24.088Z,722.7000
2023-05-15T15:57:26.177Z,696.5625
2023-05-15T15:58:27.181Z,670.8894
2023-05-15T15:59:28.389Z,640.1683
2023-05-15T16:02:32.848Z,537.1875
2023-05-15T16:07:35.613Z,414.5381
2023-05-15T16:08:36.226Z,395.9135
2023-05-15T16:09:36.755Z,375.3606
2023-05-15T16:10:37.529Z,356.4844
2023-05-15T16:11:37.940Z,342.6359
2023-05-15T16:12:39.064Z,334.8098
2023-05-15T16:13:41.392Z,328.3594
2023-05-15T16:14:42.106Z,326.2500
2023-05-15T16:15:43.747Z,330.9375
2023-05-15T16:16:44.908Z,340.9239
2023-05-15T16:22:29.020Z,427.2554
2023-05-15T16:23:30.685Z,435.7031
2023-05-15T16:24:32.935Z,443.9062
2023-05-15T16:25:35.144Z,451.8750
2023-05-15T16:26:36.442Z,459.9000
2023-05-15T16:27:36.849Z,467.1196
2023-05-15T16:28:37.401Z,466.8750
2023-05-15T16:29:39.122Z,467.1094
2023-05-15T16:30:49.085Z,472.5000
2023-05-15T16:33:13.447Z,478.3413
2023-05-15T16:34:14.481Z,479.1033
2023-05-15T16:35:16.779Z,485.3250
2023-05-15T16:36:17.442Z,502.3369
2023-05-15T16:37:19.154Z,531.5625
2023-05-15T16:38:20.896Z,621.0938
2023-05-15T16:39:23.143Z,1154.7656
2023-05-15T16:42:26.213Z,1243.3334
2023-05-15T16:51:30.865Z,765.0000
2023-05-15T16:54:33.530Z,759.3750
2023-05-15T16:55:34.980Z,753.1010
2023-05-15T16:56:36.702Z,741.2019
2023-05-15T16:57:37.620Z,722.8125
2023-05-15T16:58:38.874Z,698.1490
2023-05-15T16:59:39.350Z,666.2250
2023-05-15T17:00:42.040Z,633.3333
2023-05-15T17:01:43.365Z,607.9327
2023-05-15T17:02:44.242Z,583.3594
2023-05-15T17:03:46.191Z,562.2836
2023-05-15T17:04:46.741Z,542.8125
2023-05-15T17:05:48.044Z,527.6250
2023-05-15T17:06:49.079Z,517.5000
2023-05-15T17:07:49.247Z,513.2250
2023-05-15T17:08:49.467Z,510.5769
2023-05-15T17:09:51.624Z,506.6667
2023-05-15T17:10:53.750Z,502.9167
2023-05-15T17:11:56.495Z,503.9583
2023-05-15T17:13:57.893Z,496.4062
2023-05-15T17:24:09.123Z,505.1683
2023-05-15T17:25:11.366Z,511.2500
2023-05-15T17:26:12.326Z,512.7750
2023-05-15T17:27:15.882Z,512.1094
2023-05-15T17:30:18.079Z,506.0250
2023-05-15T17:32:21.926Z,486.7969
2023-05-15T17:33:21.986Z,550.0272
2023-05-15T17:34:23.804Z,663.2812
2023-05-15T17:35:26.017Z,671.3221
2023-05-15T17:36:25.879Z,683.6539
2023-05-15T17:37:26.738Z,640.0781
2023-05-15T17:38:27.428Z,602.3438
2023-05-15T17:39:28.294Z,545.6250
2023-05-15T17:40:29.879Z,432.0433
2023-05-15T17:41:31.742Z,427.0312
2023-05-15T17:42:33.401Z,358.9183
2023-05-15T17:43:33.807Z,335.3365
2023-05-15T17:45:35.589Z,293.9062
2023-05-15T17:46:36.822Z,280.1250
2023-05-15T17:47:49.915Z,269.5673
2023-05-15T17:49:09.984Z,265.0781
2023-05-15T17:50:10.631Z,259.9219
2023-05-15T17:51:12.073Z,250.7812
2023-05-15T17:52:18.886Z,243.6750
2023-05-15T17:53:14.493Z,234.9716
2023-05-15T17:54:16.338Z,227.1635
2023-05-15T17:55:17.848Z,217.0312
2023-05-15T17:56:18.412Z,208.8000
2023-05-15T17:57:19.848Z,199.9219
2023-05-15T18:10:31.282Z,124.9728
2023-05-15T18:11:31.849Z,120.8152
2023-05-15T18:12:32.277Z,117.1467
2023-05-15T18:13:32.942Z,112.5000
2023-05-15T18:14:33.424Z,107.1196
2023-05-15T18:15:34.559Z,106.8750
2023-05-15T18:16:34.745Z,104.6739
2023-05-15T18:17:36.858Z,101.2500
2023-05-15T18:18:37.090Z,95.8413
2023-05-15T18:27:48.120Z,59.2969
2023-05-15T18:30:20.751Z,47.1094
2023-05-15T18:31:23.493Z,45.0000
2023-05-15T18:32:23.694Z,39.3750
2023-05-15T18:33:23.688Z,37.4185
2023-05-15T18:34:25.347Z,33.7500
2023-05-15T18:35:27.354Z,30.0000
2023-05-15T18:36:27.871Z,28.1250
2023-05-15T18:37:28.540Z,26.8269
2023-05-15T18:38:29.151Z,22.5000
2023-05-15T18:39:30.527Z,22.5000
2023-05-15T18:40:32.077Z,22.5000
2023-05-15T18:41:34.393Z,22.5000
2023-05-15T18:42:34.812Z,16.8750
2023-05-15T18:43:36.913Z,16.8750
2023-05-15T18:44:38.581Z,16.8750
2023-05-15T18:45:38.900Z,16.8750
2023-05-15T18:46:39.388Z,16.8750
2023-05-15T18:47:41.063Z,12.3750
2023-05-15T18:48:42.072Z,11.2500
2023-05-15T18:49:42.268Z,11.2500
2023-05-15T18:50:44.011Z,11.2500
2023-05-15T18:51:45.415Z,11.2500
2023-05-15T18:52:47.109Z,10.8173
2023-05-15T18:53:47.470Z,5.6250
2023-05-15T18:54:49.506Z,5.6250
2023-05-15T18:57:22.990Z,5.6250
2023-05-15T18:58:23.595Z,5.6250
2023-05-15T18:59:24.834Z,5.3906
2023-05-15T19:00:37.096Z,0.0000
2023-05-15T19:05:00.497Z,0.0000
2023-05-15T19:06:01.226Z,0.0000
2023-05-15T19:07:03.207Z,0.0000
2023-05-15T19:08:04.871Z,0.0000
2023-05-15T19:09:05.874Z,0.0000
2023-05-15T19:10:06.908Z,0.0000
2023-05-15T19:11:08.818Z,0.0000
2023-05-15T19:12:09.522Z,0.0000
2023-05-15T19:13:09.639Z,0.0000
2023-05-15T19:14:10.752Z,0.0000
2023-05-15T19:15:11.715Z,0.0000
2023-05-15T19:16:13.142Z,0.0000
2023-05-15T19:17:14.373Z,0.0000
2023-05-15T19:18:15.366Z,0.0000
2023-05-15T19:19:16.251Z,0.0000
2023-05-15T19:20:17.369Z,0.0000
2023-05-15T19:21:17.618Z,0.0000
2023-05-15T19:24:21.210Z,0.0000
2023-05-15T19:25:25.809Z,0.0000
2023-05-15T19:26:24.479Z,0.0000
2023-05-15T19:27:26.270Z,0.0000
2023-05-15T19:34:31.309Z,0.0000
2023-05-15T19:35:35.885Z,0.0000
2023-05-15T19:36:35.528Z,0.0000
2023-05-15T19:37:35.601Z,0.0000
2023-05-15T19:38:37.372Z,0.0000
2023-05-15T19:39:39.161Z,0.0000
2023-05-15T19:40:41.182Z,0.0000
2023-05-15T19:41:48.900Z,0.0000
2023-05-15T19:44:15.829Z,0.0000
2023-05-15T19:45:16.473Z,0.0000
2023-05-15T19:46:18.678Z,0.0000
2023-05-15T19:47:20.198Z,0.0000
2023-05-15T19:48:22.058Z,0.0000
2023-05-15T19:49:23.240Z,0.0000
2023-05-15T19:51:25.365Z,0.0000
2023-05-15T19:52:27.750Z,0.0000
2023-05-15T19:53:28.602Z,0.0000
2023-05-15T20:00:37.271Z,0.0000
2023-05-15T20:02:38.683Z,0.0000
2023-05-15T20:04:42.750Z,0.0000
2023-05-15T20:05:43.819Z,0.0000
2023-05-15T20:06:43.916Z,0.0000
2023-05-15T20:07:45.942Z,0.0000
2023-05-15T20:08:47.100Z,0.0000
2023-05-15T20:09:49.607Z,0.0000
2023-05-15T20:10:50.319Z,0.0000
2023-05-15T20:11:51.359Z,0.0000
2023-05-15T20:12:52.783Z,0.0000
2023-05-15T20:13:52.953Z,0.0000
2023-05-15T20:14:54.847Z,0.0000
2023-05-15T20:15:56.384Z,0.0000
2023-05-15T20:16:57.903Z,0.0000
2023-05-15T20:19:00.981Z,0.0000
2023-05-15T20:20:02.682Z,0.0000
2023-05-15T20:21:02.908Z,0.0000
2023-05-15T20:23:06.605Z,0.0000
2023-05-15T20:30:14.853Z,0.0000
2023-05-15T20:31:16.833Z,0.0000
2023-05-15T20:32:18.969Z,0.0000
2023-05-15T20:33:20.327Z,0.0000